createdAt,value
2022-12-18T00:01:20.807Z,-2.59
2022-12-18T00:03:48.110Z,-2.48
2022-12-18T00:06:15.581Z,-2.53
2022-12-18T00:08:43.621Z,-2.60
2022-12-18T00:11:14.092Z,-2.61
2022-12-18T00:13:41.714Z,-2.64
2022-12-18T00:16:12.533Z,-2.71
2022-12-18T00:18:40.737Z,-2.76
2022-12-18T00:21:09.808Z,-2.65
2022-12-18T00:23:40.117Z,-2.59
2022-12-18T00:26:11.258Z,-2.50
2022-12-18T00:28:38.010Z,-2.47
2022-12-18T00:31:07.458Z,-2.48
2022-12-18T00:33:34.943Z,-2.51
2022-12-18T00:36:07.447Z,-2.61
2022-12-18T00:38:35.262Z,-2.57
2022-12-18T00:41:02.222Z,-2.56
2022-12-18T00:43:29.088Z,-2.47
2022-12-18T00:45:56.167Z,-2.46
2022-12-18T00:48:23.152Z,-2.55
2022-12-18T00:50:50.737Z,-2.63
2022-12-18T00:53:18.347Z,-2.60
2022-12-18T00:55:46.102Z,-2.51
2022-12-18T00:58:15.240Z,-2.48
2022-12-18T01:00:42.911Z,-2.52
2022-12-18T01:03:14.733Z,-2.65
2022-12-18T01:05:44.411Z,-2.62
2022-12-18T01:08:11.939Z,-2.59
2022-12-18T01:10:41.815Z,-2.67
2022-12-18T01:13:08.890Z,-2.76
2022-12-18T01:15:35.990Z,-2.64
2022-12-18T01:18:02.831Z,-2.61
2022-12-18T01:20:29.554Z,-2.56
2022-12-18T01:22:56.296Z,-2.57
2022-12-18T01:25:23.032Z,-2.65
2022-12-18T01:27:51.061Z,-2.61
2022-12-18T01:30:17.916Z,-2.63
2022-12-18T01:32:45.779Z,-2.73
2022-12-18T01:35:12.466Z,-2.76
2022-12-18T01:37:39.283Z,-2.65
2022-12-18T01:40:06.813Z,-2.68
2022-12-18T01:42:33.550Z,-2.65
2022-12-18T01:45:06.445Z,-2.62
2022-12-18T01:47:42.479Z,-2.61
2022-12-18T01:50:14.666Z,-2.65
2022-12-18T01:52:49.851Z,-2.71
2022-12-18T01:55:20.332Z,-2.72
2022-12-18T01:57:48.326Z,-2.75
2022-12-18T02:00:18.941Z,-2.71
2022-12-18T02:02:47.510Z,-2.75
2022-12-18T02:05:19.227Z,-2.78
2022-12-18T02:08:04.706Z,-2.77
2022-12-18T02:10:43.782Z,-2.80
2022-12-18T02:13:36.233Z,-2.80
2022-12-18T02:16:13.315Z,-2.75
2022-12-18T02:18:46.391Z,-2.78
2022-12-18T02:21:46.598Z,-2.78
2022-12-18T02:24:29.225Z,-2.77
2022-12-18T02:27:06.630Z,-2.72
2022-12-18T02:29:58.542Z,-2.64
2022-12-18T02:32:35.326Z,-2.67
2022-12-18T02:35:05.368Z,-2.58
2022-12-18T02:37:35.677Z,-2.55
2022-12-18T02:40:06.407Z,-2.49
2022-12-18T02:42:35.930Z,-2.43
2022-12-18T02:45:05.914Z,-2.47
2022-12-18T02:47:39.310Z,-2.51
2022-12-18T02:50:25.349Z,-2.45
2022-12-18T02:53:17.395Z,-2.56
2022-12-18T02:56:05.324Z,-2.47
2022-12-18T02:58:56.802Z,-2.47
2022-12-18T03:01:58.888Z,-2.47
2022-12-18T03:04:33.270Z,-2.58
2022-12-18T03:07:06.215Z,-2.71
2022-12-18T03:09:37.587Z,-2.65
2022-12-18T03:12:23.663Z,-2.60
2022-12-18T03:15:06.350Z,-2.55
2022-12-18T03:17:34.504Z,-2.57
2022-12-18T03:20:09.471Z,-2.62
2022-12-18T03:22:38.530Z,-2.73
2022-12-18T03:25:09.912Z,-2.70
2022-12-18T03:27:47.375Z,-2.71
2022-12-18T03:30:19.078Z,-2.64
2022-12-18T03:33:00.566Z,-2.63
2022-12-18T03:35:34.410Z,-2.65
2022-12-18T03:38:01.444Z,-2.63
2022-12-18T03:40:42.095Z,-2.67
2022-12-18T03:43:45.911Z,-2.63
2022-12-18T03:46:31.249Z,-2.59
2022-12-18T03:49:10.863Z,-2.57
2022-12-18T03:51:45.921Z,-2.57
2022-12-18T03:54:14.075Z,-2.56
2022-12-18T03:56:54.572Z,-2.64
2022-12-18T03:59:23.359Z,-2.62
2022-12-18T04:01:53.868Z,-2.63
2022-12-18T04:04:23.323Z,-2.64
2022-12-18T04:06:51.411Z,-2.66
2022-12-18T04:09:21.017Z,-2.65
2022-12-18T04:11:48.979Z,-2.67
2022-12-18T04:14:18.261Z,-2.55
2022-12-18T04:16:46.485Z,-2.52
2022-12-18T04:19:16.362Z,-2.53
2022-12-18T04:21:44.876Z,-2.63
2022-12-18T04:24:13.807Z,-2.61
2022-12-18T04:26:47.010Z,-2.58
2022-12-18T04:29:18.703Z,-2.65
2022-12-18T04:31:45.391Z,-2.58
2022-12-18T04:34:12.451Z,-2.75
2022-12-18T04:36:45.467Z,-2.82
2022-12-18T04:39:13.785Z,-2.78
2022-12-18T04:41:42.220Z,-2.82
2022-12-18T04:44:09.495Z,-2.85
2022-12-18T04:46:36.245Z,-2.82
2022-12-18T04:49:03.031Z,-2.78
2022-12-18T04:51:29.718Z,-2.79
2022-12-18T04:53:56.480Z,-2.75
2022-12-18T04:56:23.575Z,-2.80
2022-12-18T04:58:50.500Z,-2.90
2022-12-18T05:01:18.708Z,-3.02
2022-12-18T05:03:46.128Z,-3.05
2022-12-18T05:06:13.014Z,-2.97
2022-12-18T05:08:39.971Z,-2.96
2022-12-18T05:11:10.125Z,-2.97
2022-12-18T05:13:39.020Z,-2.94
2022-12-18T05:16:07.433Z,-2.87
2022-12-18T05:18:34.629Z,-2.94
2022-12-18T05:21:01.610Z,-2.90
2022-12-18T05:23:29.092Z,-2.93
2022-12-18T05:26:01.771Z,-2.98
2022-12-18T05:28:30.822Z,-3.00
2022-12-18T05:31:00.177Z,-2.91
2022-12-18T05:33:29.671Z,-2.87
2022-12-18T05:35:59.708Z,-2.83
2022-12-18T05:38:27.722Z,-2.81
2022-12-18T05:40:54.848Z,-2.85
2022-12-18T05:43:22.862Z,-2.82
2022-12-18T05:45:50.061Z,-2.82
2022-12-18T05:48:17.855Z,-2.77
2022-12-18T05:50:46.763Z,-2.82
2022-12-18T05:53:15.384Z,-2.79
2022-12-18T05:55:43.752Z,-2.83
2022-12-18T05:58:11.695Z,-2.98
2022-12-18T06:00:40.940Z,-2.95
2022-12-18T06:03:09.670Z,-3.05
2022-12-18T06:05:41.843Z,-3.07
2022-12-18T06:08:09.154Z,-3.09
2022-12-18T06:10:35.871Z,-3.08
2022-12-18T06:13:02.722Z,-3.11
2022-12-18T06:15:29.634Z,-3.10
2022-12-18T06:17:56.438Z,-3.15
2022-12-18T06:20:23.366Z,-3.08
2022-12-18T06:22:50.543Z,-3.10
2022-12-18T06:25:17.137Z,-3.09
2022-12-18T06:27:44.263Z,-3.06
2022-12-18T06:30:12.163Z,-3.08
2022-12-18T06:32:39.420Z,-3.12
2022-12-18T06:35:06.662Z,-3.12
2022-12-18T06:37:33.304Z,-3.10
2022-12-18T06:40:00.175Z,-3.09
2022-12-18T06:42:26.866Z,-3.14
2022-12-18T06:44:53.558Z,-3.17
2022-12-18T06:47:20.322Z,-3.37
2022-12-18T06:49:46.990Z,-3.20
2022-12-18T06:52:13.683Z,-3.20
2022-12-18T06:54:40.390Z,-3.20
2022-12-18T06:57:07.148Z,-3.14
2022-12-18T06:59:33.897Z,-3.09
2022-12-18T07:02:00.670Z,-3.14
2022-12-18T07:04:30.899Z,-3.16
2022-12-18T07:06:58.331Z,-3.16
2022-12-18T07:09:26.709Z,-3.10
2022-12-18T07:11:53.779Z,-3.13
2022-12-18T07:14:20.498Z,-3.13
2022-12-18T07:16:48.293Z,-3.06
2022-12-18T07:19:15.540Z,-3.02
2022-12-18T07:21:42.164Z,-2.95
2022-12-18T07:24:08.977Z,-2.86
2022-12-18T07:26:35.680Z,-2.80
2022-12-18T07:29:02.781Z,-2.77
2022-12-18T07:31:29.821Z,-2.79
2022-12-18T07:33:56.691Z,-2.69
2022-12-18T07:36:23.438Z,-2.71
2022-12-18T07:38:51.325Z,-2.76
2022-12-18T07:41:20.021Z,-2.95
2022-12-18T07:43:47.054Z,-3.09
2022-12-18T07:46:15.132Z,-3.13
2022-12-18T07:48:43.779Z,-3.05
2022-12-18T07:51:12.305Z,-3.19
2022-12-18T07:53:40.200Z,-3.24
2022-12-18T07:58:57.490Z,-3.12
2022-12-18T08:01:24.373Z,-3.10
2022-12-18T08:03:52.427Z,-3.08
2022-12-18T08:06:22.764Z,-3.01
2022-12-18T08:08:54.648Z,-3.09
2022-12-18T08:11:21.828Z,-3.16
2022-12-18T08:13:48.571Z,-3.18
2022-12-18T08:16:16.204Z,-3.13
2022-12-18T08:18:42.982Z,-2.98
2022-12-18T08:21:17.863Z,-2.96
2022-12-18T08:23:45.389Z,-2.96
2022-12-18T08:26:13.250Z,-3.04
2022-12-18T08:28:40.935Z,-3.12
2022-12-18T08:31:08.605Z,-3.18
2022-12-18T08:33:37.279Z,-3.19
2022-12-18T08:36:05.215Z,-3.08
2022-12-18T08:38:35.931Z,-3.00
2022-12-18T08:41:05.551Z,-3.10
2022-12-18T08:43:51.085Z,-3.05
2022-12-18T08:46:19.449Z,-2.93
2022-12-18T08:48:46.666Z,-2.90
2022-12-18T08:51:13.559Z,-2.99
2022-12-18T08:53:40.767Z,-3.12
2022-12-18T08:56:08.584Z,-3.04
2022-12-18T08:58:36.024Z,-3.04
2022-12-18T09:01:10.338Z,-2.99
2022-12-18T09:03:38.138Z,-3.03
2022-12-18T09:06:05.975Z,-2.93
2022-12-18T09:08:35.616Z,-3.15
2022-12-18T09:11:03.090Z,-3.10
2022-12-18T09:13:30.341Z,-3.12
2022-12-18T09:15:57.173Z,-3.07
2022-12-18T09:18:25.637Z,-3.21
2022-12-18T09:20:54.122Z,-3.32
2022-12-18T09:23:21.746Z,-3.15
2022-12-18T09:25:49.430Z,-2.98
2022-12-18T09:28:19.336Z,-3.02
2022-12-18T09:30:50.822Z,-2.99
2022-12-18T09:33:18.637Z,-2.97
2022-12-18T09:35:47.013Z,-3.12
2022-12-18T09:38:19.167Z,-3.09
2022-12-18T09:41:00.783Z,-2.96
2022-12-18T09:43:48.035Z,-2.90
2022-12-18T09:46:26.491Z,-2.71
2022-12-18T09:48:58.219Z,-2.71
2022-12-18T09:51:39.833Z,-2.93
2022-12-18T09:54:12.376Z,-2.96
2022-12-18T09:56:44.720Z,-2.91
2022-12-18T09:59:22.377Z,-3.01
2022-12-18T10:01:49.343Z,-2.96
2022-12-18T10:04:16.318Z,-2.94
2022-12-18T10:07:28.311Z,-2.83
2022-12-18T10:10:20.336Z,-2.83
2022-12-18T10:13:05.896Z,-2.92
2022-12-18T10:15:50.315Z,-3.00
2022-12-18T10:18:55.045Z,-2.91
2022-12-18T10:21:29.524Z,-2.90
2022-12-18T10:24:04.336Z,-2.93
2022-12-18T10:26:33.083Z,-3.04
2022-12-18T10:29:05.262Z,-2.96
2022-12-18T10:31:32.547Z,-2.92
2022-12-18T10:33:59.294Z,-2.89
2022-12-18T10:36:26.336Z,-2.88
2022-12-18T10:38:53.104Z,-2.99
2022-12-18T10:41:21.771Z,-2.85
2022-12-18T10:43:49.032Z,-2.95
2022-12-18T10:46:17.911Z,-2.92
2022-12-18T10:48:47.594Z,-2.94
2022-12-18T10:51:34.905Z,-2.85
2022-12-18T10:54:07.740Z,-2.86
2022-12-18T10:56:37.864Z,-2.90
2022-12-18T10:59:10.713Z,-2.76
2022-12-18T11:01:49.454Z,-2.72
2022-12-18T11:04:50.458Z,-2.75
2022-12-18T11:07:17.216Z,-2.70
2022-12-18T11:09:43.892Z,-2.63
2022-12-18T11:12:23.945Z,-2.77
2022-12-18T11:14:59.061Z,-2.72
2022-12-18T11:17:35.851Z,-2.75
2022-12-18T11:20:07.928Z,-2.73
2022-12-18T11:22:37.439Z,-2.75
2022-12-18T11:25:35.667Z,-2.74
2022-12-18T11:28:30.197Z,-2.66
2022-12-18T11:31:18.844Z,-2.61
2022-12-18T11:34:28.654Z,-2.61
2022-12-18T11:36:56.290Z,-2.59
2022-12-18T11:39:46.034Z,-2.52
2022-12-18T11:42:23.854Z,-2.62
2022-12-18T11:45:21.268Z,-2.62
2022-12-18T11:48:20.076Z,-2.64
2022-12-18T11:51:27.075Z,-2.67
2022-12-18T11:53:54.079Z,-2.62
2022-12-18T11:57:05.965Z,-2.61
2022-12-18T12:00:02.461Z,-2.52
2022-12-18T12:03:00.251Z,-2.39
2022-12-18T12:05:36.277Z,-2.39
2022-12-18T12:08:17.072Z,-2.40
2022-12-18T12:11:08.475Z,-2.39
2022-12-18T12:13:51.527Z,-2.43
2022-12-18T12:16:21.078Z,-2.44
2022-12-18T12:19:21.362Z,-2.46
2022-12-18T12:22:03.242Z,-2.54
2022-12-18T12:25:02.197Z,-2.54
2022-12-18T12:27:34.660Z,-2.52
2022-12-18T12:30:23.798Z,-2.60
2022-12-18T12:33:09.322Z,-2.55
2022-12-18T12:35:50.511Z,-2.52
2022-12-18T12:38:24.772Z,-2.53
2022-12-18T12:41:03.376Z,-2.54
2022-12-18T12:46:40.434Z,-2.48
2022-12-18T12:49:40.673Z,-2.47
2022-12-18T12:52:14.969Z,-2.50
2022-12-18T12:54:43.251Z,-2.37
2022-12-18T12:57:27.946Z,-2.43
2022-12-18T13:00:17.788Z,-2.47
2022-12-18T13:03:13.974Z,-2.47
2022-12-18T13:05:49.415Z,-2.50
2022-12-18T13:08:31.677Z,-2.39
2022-12-18T13:11:20.910Z,-2.38
2022-12-18T13:13:55.400Z,-2.33
2022-12-18T13:16:28.690Z,-2.26
2022-12-18T13:19:00.663Z,-2.21
2022-12-18T13:21:34.623Z,-2.21
2022-12-18T13:24:24.756Z,-2.19
2022-12-18T13:26:52.162Z,-2.12
2022-12-18T13:29:48.436Z,-1.99
2022-12-18T13:32:26.404Z,-1.98
2022-12-18T13:35:19.070Z,-1.84
2022-12-18T13:37:55.259Z,-1.75
2022-12-18T13:40:50.951Z,-1.62
2022-12-18T13:43:20.680Z,-1.52
2022-12-18T13:46:07.673Z,-1.45
2022-12-18T13:48:39.048Z,-1.40
2022-12-18T13:51:11.977Z,-1.43
2022-12-18T13:53:50.674Z,-1.36
2022-12-18T13:56:25.621Z,-1.40
2022-12-18T13:59:19.407Z,-1.41
2022-12-18T14:01:51.977Z,-1.37
2022-12-18T14:04:28.854Z,-1.34
2022-12-18T14:07:33.042Z,-1.29
2022-12-18T14:10:41.911Z,-1.26
2022-12-18T14:13:11.739Z,-1.36
2022-12-18T14:15:45.358Z,-1.30
2022-12-18T14:18:18.125Z,-1.30
2022-12-18T14:20:52.686Z,-1.29
2022-12-18T14:23:41.306Z,-1.37
2022-12-18T14:26:40.528Z,-1.44
2022-12-18T14:29:31.075Z,-1.53
2022-12-18T14:32:19.344Z,-1.58
2022-12-18T14:34:52.925Z,-1.49
2022-12-18T14:37:24.426Z,-1.52
2022-12-18T14:40:00.125Z,-1.54
2022-12-18T14:42:29.601Z,-1.55
2022-12-18T14:45:39.182Z,-1.48
2022-12-18T14:48:23.193Z,-1.46
2022-12-18T14:51:03.404Z,-1.51
2022-12-18T14:53:39.320Z,-1.52
2022-12-18T14:56:26.773Z,-1.50
2022-12-18T14:58:59.271Z,-1.49
2022-12-18T15:01:39.359Z,-1.45
2022-12-18T15:04:23.688Z,-1.41
2022-12-18T15:07:20.127Z,-1.43
2022-12-18T15:10:02.200Z,-1.36
2022-12-18T15:12:37.924Z,-1.38
2022-12-18T15:15:06.264Z,-1.35
2022-12-18T15:17:32.987Z,-1.34
2022-12-18T15:20:10.666Z,-1.34
2022-12-18T15:22:38.342Z,-1.35
2022-12-18T15:25:27.586Z,-1.36
2022-12-18T15:27:54.435Z,-1.39
2022-12-18T15:30:26.001Z,-1.34
2022-12-18T15:33:07.552Z,-1.39
2022-12-18T15:35:34.364Z,-1.35
2022-12-18T15:38:01.108Z,-1.35
2022-12-18T15:40:27.913Z,-1.33
2022-12-18T15:43:15.059Z,-1.40
2022-12-18T15:45:42.636Z,-1.34
2022-12-18T15:48:22.993Z,-1.35
2022-12-18T15:50:52.062Z,-1.34
2022-12-18T15:53:18.920Z,-1.31
2022-12-18T15:56:04.592Z,-1.32
2022-12-18T15:58:31.655Z,-1.39
2022-12-18T16:01:00.559Z,-1.33
2022-12-18T16:03:27.854Z,-1.35
2022-12-18T16:05:54.971Z,-1.38
2022-12-18T16:08:23.704Z,-1.39
2022-12-18T16:10:50.568Z,-1.38
2022-12-18T16:13:20.250Z,-1.45
2022-12-18T16:15:47.540Z,-1.48
2022-12-18T16:18:14.376Z,-1.52
2022-12-18T16:20:41.672Z,-1.47
2022-12-18T16:23:08.225Z,-1.42
2022-12-18T16:25:35.043Z,-1.42
2022-12-18T16:28:01.984Z,-1.52
2022-12-18T16:30:32.750Z,-1.44
2022-12-18T16:33:07.463Z,-1.49
2022-12-18T16:35:35.643Z,-1.54
2022-12-18T16:38:02.363Z,-1.59
2022-12-18T16:40:29.273Z,-1.62
2022-12-18T16:42:56.042Z,-1.67
2022-12-18T16:45:24.181Z,-1.77
2022-12-18T16:47:51.067Z,-1.76
2022-12-18T16:50:17.951Z,-1.78
2022-12-18T16:52:46.001Z,-1.85
2022-12-18T16:55:12.765Z,-1.86
2022-12-18T16:57:42.004Z,-1.86
2022-12-18T17:00:11.151Z,-1.86
2022-12-18T17:02:38.205Z,-1.93
2022-12-18T17:05:05.195Z,-1.96
2022-12-18T17:07:32.226Z,-2.01
2022-12-18T17:09:59.213Z,-1.92
2022-12-18T17:12:28.756Z,-1.95
2022-12-18T17:14:55.620Z,-1.93
2022-12-18T17:17:23.542Z,-1.95
2022-12-18T17:19:52.248Z,-1.96
2022-12-18T17:22:21.231Z,-1.99
2022-12-18T17:24:49.320Z,-1.97
2022-12-18T17:27:16.201Z,-2.01
2022-12-18T17:29:48.268Z,-1.95
2022-12-18T17:32:16.822Z,-1.98
2022-12-18T17:34:44.181Z,-2.15
2022-12-18T17:37:11.425Z,-2.06
2022-12-18T17:39:39.123Z,-2.09
2022-12-18T17:42:09.523Z,-2.14
2022-12-18T17:44:44.893Z,-2.12
2022-12-18T17:47:13.374Z,-2.12
2022-12-18T17:49:44.331Z,-2.12
2022-12-18T17:52:12.797Z,-2.13
2022-12-18T17:54:45.955Z,-2.10
2022-12-18T17:57:14.711Z,-2.10
2022-12-18T17:59:41.600Z,-2.11
2022-12-18T18:02:12.002Z,-2.17
2022-12-18T18:04:39.030Z,-2.22
2022-12-18T18:07:05.880Z,-2.31
2022-12-18T18:09:32.770Z,-2.17
2022-12-18T18:12:18.057Z,-2.18
2022-12-18T18:14:44.819Z,-2.20
2022-12-18T18:17:11.836Z,-2.21
2022-12-18T18:19:39.380Z,-2.19
2022-12-18T18:22:07.079Z,-2.19
2022-12-18T18:24:34.236Z,-2.15
2022-12-18T18:27:00.904Z,-2.16
2022-12-18T18:29:30.558Z,-2.24
2022-12-18T18:31:58.078Z,-2.16
2022-12-18T18:34:27.819Z,-2.20
2022-12-18T18:36:54.659Z,-2.29
2022-12-18T18:39:22.061Z,-2.31
2022-12-18T18:41:49.694Z,-2.27
2022-12-18T18:44:18.765Z,-2.27
2022-12-18T18:46:45.751Z,-2.32
2022-12-18T18:49:14.094Z,-2.24
2022-12-18T18:51:42.839Z,-2.33
2022-12-18T18:54:10.544Z,-2.31
2022-12-18T18:57:04.019Z,-2.30
2022-12-18T18:59:31.587Z,-2.35
2022-12-18T19:02:04.571Z,-2.31
2022-12-18T19:04:33.419Z,-2.33
2022-12-18T19:07:01.725Z,-2.35
2022-12-18T19:09:29.518Z,-2.34
2022-12-18T19:12:15.492Z,-2.31
2022-12-18T19:14:42.711Z,-2.41
2022-12-18T19:17:10.786Z,-2.42
2022-12-18T19:19:37.887Z,-2.38
2022-12-18T19:22:07.638Z,-2.39
2022-12-18T19:24:35.630Z,-2.35
2022-12-18T19:27:02.283Z,-2.42
2022-12-18T19:29:29.047Z,-2.37
2022-12-18T19:31:56.124Z,-2.42
2022-12-18T19:34:22.895Z,-2.49
2022-12-18T19:36:50.776Z,-2.41
2022-12-18T19:39:19.801Z,-2.42
2022-12-18T19:41:46.886Z,-2.45
2022-12-18T19:44:16.214Z,-2.43
2022-12-18T19:46:44.000Z,-2.43
2022-12-18T19:49:17.554Z,-2.49
2022-12-18T19:51:45.039Z,-2.49
2022-12-18T19:54:16.384Z,-2.50
2022-12-18T19:56:44.199Z,-2.45
2022-12-18T19:59:11.176Z,-2.63
2022-12-18T20:01:38.713Z,-2.60
2022-12-18T20:04:06.436Z,-2.56
2022-12-18T20:06:46.377Z,-2.55
2022-12-18T20:09:13.896Z,-2.54
2022-12-18T20:11:41.833Z,-2.58
2022-12-18T20:14:14.906Z,-2.53
2022-12-18T20:16:47.665Z,-2.54
2022-12-18T20:19:16.718Z,-2.51
2022-12-18T20:21:46.868Z,-2.53
2022-12-18T20:24:13.784Z,-2.59
2022-12-18T20:26:40.739Z,-2.49
2022-12-18T20:29:09.183Z,-2.49
2022-12-18T20:31:36.261Z,-2.54
2022-12-18T20:34:04.962Z,-2.53
2022-12-18T20:36:36.228Z,-2.43
2022-12-18T20:39:06.504Z,-2.42
2022-12-18T20:41:37.859Z,-2.41
2022-12-18T20:44:10.276Z,-2.36
2022-12-18T20:46:54.184Z,-2.29
2022-12-18T20:49:21.073Z,-2.28
2022-12-18T20:51:51.953Z,-2.36
2022-12-18T20:54:18.749Z,-2.24
2022-12-18T20:56:47.460Z,-2.24
2022-12-18T20:59:14.908Z,-2.40
2022-12-18T21:01:45.255Z,-2.35
2022-12-18T21:04:18.907Z,-2.40
2022-12-18T21:06:54.114Z,-2.41
2022-12-18T21:09:24.671Z,-2.50
2022-12-18T21:12:13.188Z,-2.38
2022-12-18T21:14:42.185Z,-2.57
2022-12-18T21:17:09.156Z,-2.51
2022-12-18T21:19:36.266Z,-2.52
2022-12-18T21:22:03.663Z,-2.57
2022-12-18T21:24:32.544Z,-2.48
2022-12-18T21:27:02.005Z,-2.47
2022-12-18T21:29:28.891Z,-2.47
2022-12-18T21:31:56.031Z,-2.52
2022-12-18T21:34:28.497Z,-2.48
2022-12-18T21:36:57.820Z,-2.49
2022-12-18T21:39:27.343Z,-2.47
2022-12-18T21:42:12.870Z,-2.47
2022-12-18T21:44:42.316Z,-2.47
2022-12-18T21:47:21.908Z,-2.47
2022-12-18T21:49:51.992Z,-2.43
2022-12-18T21:52:19.510Z,-2.47
2022-12-18T21:54:48.248Z,-2.42
2022-12-18T21:57:15.026Z,-2.39
2022-12-18T21:59:43.643Z,-2.46
2022-12-18T22:02:15.385Z,-2.48
2022-12-18T22:04:43.592Z,-2.51
2022-12-18T22:07:11.352Z,-2.68
2022-12-18T22:09:38.342Z,-2.56
2022-12-18T22:12:05.964Z,-2.58
2022-12-18T22:14:32.815Z,-2.59
2022-12-18T22:16:59.623Z,-2.63
2022-12-18T22:19:27.094Z,-2.64
2022-12-18T22:21:54.631Z,-2.64
2022-12-18T22:24:26.259Z,-2.63
2022-12-18T22:26:59.548Z,-2.76
2022-12-18T22:29:47.536Z,-2.70
2022-12-18T22:32:16.987Z,-2.81
2022-12-18T22:34:48.232Z,-2.96
2022-12-18T22:37:14.915Z,-2.89
2022-12-18T22:39:41.650Z,-2.82
2022-12-18T22:42:08.908Z,-2.86
2022-12-18T22:44:35.592Z,-2.86
2022-12-18T22:47:07.006Z,-2.93
2022-12-18T22:49:35.715Z,-3.03
2022-12-18T22:52:09.357Z,-2.91
2022-12-18T22:54:36.365Z,-2.97
2022-12-18T22:57:03.155Z,-2.90
2022-12-18T22:59:29.974Z,-3.00
2022-12-18T23:01:58.496Z,-2.96
2022-12-18T23:04:30.164Z,-2.99
2022-12-18T23:07:03.016Z,-3.00
2022-12-18T23:09:29.776Z,-3.01
2022-12-18T23:11:56.520Z,-2.94
2022-12-18T23:14:23.213Z,-3.00
2022-12-18T23:16:50.026Z,-3.02
2022-12-18T23:19:19.080Z,-3.22
2022-12-18T23:21:45.758Z,-3.06
2022-12-18T23:24:12.489Z,-3.03
2022-12-18T23:26:39.281Z,-3.09
2022-12-18T23:29:06.198Z,-3.05
2022-12-18T23:31:36.013Z,-3.04
2022-12-18T23:34:04.950Z,-3.04
2022-12-18T23:36:34.007Z,-3.04
2022-12-18T23:39:15.309Z,-3.03
2022-12-18T23:41:53.775Z,-3.05
2022-12-18T23:44:20.474Z,-3.08
2022-12-18T23:46:47.205Z,-3.10
2022-12-18T23:49:14.023Z,-3.15
2022-12-18T23:51:40.711Z,-3.18
2022-12-18T23:54:09.016Z,-3.09
2022-12-18T23:56:35.845Z,-3.08
2022-12-18T23:59:02.528Z,-3.16
